Amelia Island, Florida
Current Conditions -  °F | °C
As of 11:15 PM on Friday 19 Dec 2014 (Local Time) from KFHB Reporting Station
Broken Clouds Broken Clouds  
Wind Chill: 15°   Ceiling: 11000
Heat Index: 15°   Visibility: 10mi
Dew Point: 12°   Wind: 3mph
Humidity: 82%   Direction: 50°NE
Pressure: 30.1"   Gusts: NA
Location:  30.6056°N, 81.5268°W
Report Text: KFHB 200415Z AUTO 05003KT 10SM BKN110 15/12 A3010 RMK AO1
Loading
Personal Weather Stations






























Interactive Weather Map New forecast layout! Learn more

10-Day Weather Forecast

Advertisements
Track Severe Weather on mobile